createdAt,value
2022-09-03T00:01:43.842Z,97740.28
2022-09-03T00:04:25.659Z,97736.16
2022-09-03T00:07:01.286Z,97735.44
2022-09-03T00:09:35.187Z,97733.66
2022-09-03T00:12:11.171Z,97744.94
2022-09-03T00:14:41.875Z,97736.38
2022-09-03T00:17:14.483Z,97740.03
2022-09-03T00:19:53.252Z,97744.69
2022-09-03T00:22:25.824Z,97737.41
2022-09-03T00:24:54.090Z,97736.84
2022-09-03T00:27:25.041Z,97741.31
2022-09-03T00:29:58.174Z,97738.09
2022-09-03T00:32:34.609Z,97736.31
2022-09-03T00:35:09.536Z,97732.19
2022-09-03T00:37:38.470Z,97736.47
2022-09-03T00:40:18.342Z,97734.19
2022-09-03T00:42:53.850Z,97721.88
2022-09-03T00:45:33.238Z,97724.22
2022-09-03T00:48:11.727Z,97728.22
2022-09-03T00:50:53.355Z,97726.88
2022-09-03T00:53:28.542Z,97723.66
2022-09-03T00:56:04.175Z,97734.69
2022-09-03T00:58:49.939Z,97740.19
2022-09-03T01:01:21.494Z,97738.38
2022-09-03T01:03:58.947Z,97741.31
2022-09-03T01:06:35.672Z,97745.22
2022-09-03T01:09:12.396Z,97747.84
2022-09-03T01:11:51.343Z,97749.28
2022-09-03T01:14:30.038Z,97743.78
2022-09-03T01:17:04.251Z,97749.63
2022-09-03T01:19:58.495Z,97749.19
2022-09-03T01:22:55.578Z,97753.03
2022-09-03T01:25:38.523Z,97745.59
2022-09-03T01:28:19.221Z,97761.34
2022-09-03T01:30:55.750Z,97757.91
2022-09-03T01:33:28.735Z,97755.56
2022-09-03T01:36:05.291Z,97754.63
2022-09-03T01:38:38.609Z,97761.25
2022-09-03T01:41:13.678Z,97760.75
2022-09-03T01:43:49.125Z,97761.56
2022-09-03T01:46:22.997Z,97756.84
2022-09-03T01:48:56.014Z,97753.22
2022-09-03T01:51:25.654Z,97768.28
2022-09-03T01:54:03.619Z,97760.00
2022-09-03T01:56:43.836Z,97771.34
2022-09-03T01:59:17.934Z,97775.31
2022-09-03T02:01:51.271Z,97768.09
2022-09-03T02:04:20.791Z,97772.03
2022-09-03T02:06:49.002Z,97772.75
2022-09-03T02:09:16.421Z,97773.38
2022-09-03T02:11:46.924Z,97775.31
2022-09-03T02:14:16.015Z,97773.88
2022-09-03T02:16:43.560Z,97767.22
2022-09-03T02:19:14.828Z,97768.13
2022-09-03T02:21:47.973Z,97771.56
2022-09-03T02:24:15.470Z,97768.09
2022-09-03T02:26:42.996Z,97776.91
2022-09-03T02:29:10.741Z,97778.16
2022-09-03T02:31:39.738Z,97787.56
2022-09-03T02:34:07.452Z,97782.22
2022-09-03T02:36:38.345Z,97788.25
2022-09-03T02:39:06.216Z,97784.31
2022-09-03T02:41:34.155Z,97787.63
2022-09-03T02:44:08.668Z,97795.06
2022-09-03T02:46:43.547Z,97790.78
2022-09-03T02:49:11.357Z,97793.31
2022-09-03T02:51:40.649Z,97792.53
2022-09-03T02:54:11.127Z,97786.66
2022-09-03T02:56:38.905Z,97794.00
2022-09-03T02:59:08.667Z,97792.72
2022-09-03T03:01:36.739Z,97791.84
2022-09-03T03:04:05.934Z,97793.50
2022-09-03T03:06:33.379Z,97803.56
2022-09-03T03:09:00.905Z,97796.66
2022-09-03T03:11:28.295Z,97789.41
2022-09-03T03:13:55.844Z,97801.38
2022-09-03T03:16:23.387Z,97794.53
2022-09-03T03:18:50.813Z,97791.75
2022-09-03T03:21:20.919Z,97797.63
2022-09-03T03:23:48.369Z,97794.28
2022-09-03T03:26:18.336Z,97796.41
2022-09-03T03:28:46.610Z,97798.06
2022-09-03T03:31:16.910Z,97792.81
2022-09-03T03:33:45.701Z,97795.06
2022-09-03T03:36:15.106Z,97798.94
2022-09-03T03:38:45.075Z,97798.91
2022-09-03T03:41:14.868Z,97800.31
2022-09-03T03:43:42.456Z,97800.59
2022-09-03T03:46:10.820Z,97799.66
2022-09-03T03:48:39.236Z,97805.81
2022-09-03T03:51:07.987Z,97807.50
2022-09-03T03:53:36.983Z,97814.22
2022-09-03T03:56:08.051Z,97807.47
2022-09-03T03:58:35.721Z,97806.59
2022-09-03T04:01:07.533Z,97808.50
2022-09-03T04:03:35.028Z,97811.75
2022-09-03T04:06:02.737Z,97810.25
2022-09-03T04:08:30.656Z,97809.63
2022-09-03T04:11:00.639Z,97811.13
2022-09-03T04:13:30.956Z,97809.03
2022-09-03T04:16:02.203Z,97802.31
2022-09-03T04:18:30.135Z,97807.31
2022-09-03T04:21:00.576Z,97808.91
2022-09-03T04:23:28.635Z,97814.28
2022-09-03T04:25:56.019Z,97813.91
2022-09-03T04:28:25.166Z,97815.69
2022-09-03T04:30:54.699Z,97823.72
2022-09-03T04:33:25.487Z,97812.97
2022-09-03T04:35:52.903Z,97816.22
2022-09-03T04:38:20.320Z,97810.41
2022-09-03T04:40:52.875Z,97814.09
2022-09-03T04:43:20.301Z,97816.97
2022-09-03T04:45:47.734Z,97812.91
2022-09-03T04:48:16.649Z,97818.25
2022-09-03T04:50:44.057Z,97808.50
2022-09-03T04:53:11.784Z,97814.09
2022-09-03T04:55:39.240Z,97816.31
2022-09-03T04:58:06.714Z,97816.34
2022-09-03T05:00:34.214Z,97815.59
2022-09-03T05:03:01.812Z,97819.78
2022-09-03T05:05:30.777Z,97814.59
2022-09-03T05:07:58.883Z,97826.41
2022-09-03T05:10:26.354Z,97822.59
2022-09-03T05:12:59.271Z,97818.44
2022-09-03T05:15:26.786Z,97814.59
2022-09-03T05:17:57.184Z,97817.50
2022-09-03T05:20:24.605Z,97817.00
2022-09-03T05:22:53.470Z,97825.75
2022-09-03T05:25:20.934Z,97811.47
2022-09-03T05:27:48.737Z,97820.00
2022-09-03T05:30:16.265Z,97828.31
2022-09-03T05:32:43.673Z,97824.16
2022-09-03T05:35:11.079Z,97827.47
2022-09-03T05:37:38.568Z,97820.97
2022-09-03T05:40:09.327Z,97812.97
2022-09-03T05:42:36.948Z,97811.03
2022-09-03T05:45:07.593Z,97817.72
2022-09-03T05:47:35.082Z,97811.09
2022-09-03T05:50:02.942Z,97813.41
2022-09-03T05:52:30.343Z,97807.97
2022-09-03T05:54:57.774Z,97817.94
2022-09-03T05:57:26.596Z,97815.47
2022-09-03T05:59:53.999Z,97818.75
2022-09-03T06:02:21.494Z,97818.34
2022-09-03T06:04:48.955Z,97818.16
2022-09-03T06:07:16.331Z,97819.16
2022-09-03T06:09:43.722Z,97822.09
2022-09-03T06:12:11.233Z,97815.78
2022-09-03T06:14:40.074Z,97812.31
2022-09-03T06:17:07.598Z,97821.69
2022-09-03T06:19:35.000Z,97817.03
2022-09-03T06:22:02.446Z,97810.47
2022-09-03T06:24:29.848Z,97817.50
2022-09-03T06:26:57.682Z,97814.56
2022-09-03T06:29:25.278Z,97802.91
2022-09-03T06:31:54.260Z,97815.09
2022-09-03T06:34:21.933Z,97809.44
2022-09-03T06:36:49.312Z,97800.16
2022-09-03T06:39:16.885Z,97809.19
2022-09-03T06:41:44.304Z,97808.09
2022-09-03T06:44:12.066Z,97803.72
2022-09-03T06:46:41.053Z,97801.31
2022-09-03T06:49:12.818Z,97804.59
2022-09-03T06:51:40.536Z,97810.19
2022-09-03T06:54:09.750Z,97814.84
2022-09-03T06:56:40.629Z,97816.06
2022-09-03T06:59:09.975Z,97809.22
2022-09-03T07:01:37.875Z,97813.78
2022-09-03T07:04:05.936Z,97810.50
2022-09-03T07:06:36.920Z,97815.03
2022-09-03T07:09:04.646Z,97813.34
2022-09-03T07:11:32.600Z,97803.78
2022-09-03T07:14:00.428Z,97802.97
2022-09-03T07:16:29.098Z,97812.97
2022-09-03T07:18:56.807Z,97807.16
2022-09-03T07:21:26.304Z,97811.94
2022-09-03T07:23:56.577Z,97808.41
2022-09-03T07:26:26.698Z,97806.94
2022-09-03T07:28:54.858Z,97801.34
2022-09-03T07:31:23.962Z,97804.66
2022-09-03T07:33:53.324Z,97803.19
2022-09-03T07:36:20.727Z,97804.03
2022-09-03T07:38:48.247Z,97796.75
2022-09-03T07:41:21.787Z,97791.91
2022-09-03T07:43:56.818Z,97803.78
2022-09-03T07:46:26.128Z,97805.50
2022-09-03T07:48:55.280Z,97810.25
2022-09-03T07:51:24.461Z,97814.19
2022-09-03T07:53:54.675Z,97812.09
2022-09-03T07:56:24.260Z,97806.53
2022-09-03T07:58:51.781Z,97794.59
2022-09-03T08:01:20.835Z,97801.41
2022-09-03T08:03:50.879Z,97793.41
2022-09-03T08:06:19.735Z,97795.03
2022-09-03T08:08:47.471Z,97804.41
2022-09-03T08:11:16.590Z,97791.06
2022-09-03T08:13:46.933Z,97788.47
2022-09-03T08:16:16.371Z,97801.38
2022-09-03T08:18:44.239Z,97800.16
2022-09-03T08:21:13.704Z,97800.25
2022-09-03T08:23:42.831Z,97801.00
2022-09-03T08:26:10.800Z,97804.41
2022-09-03T08:28:38.652Z,97804.31
2022-09-03T08:31:09.708Z,97795.41
2022-09-03T08:33:37.269Z,97805.63
2022-09-03T08:36:06.780Z,97806.44
2022-09-03T08:38:34.973Z,97811.69
2022-09-03T08:41:07.481Z,97812.72
2022-09-03T08:43:48.883Z,97809.97
2022-09-03T08:46:17.941Z,97820.25
2022-09-03T08:48:46.214Z,97818.38
2022-09-03T08:51:14.909Z,97823.25
2022-09-03T08:53:47.065Z,97827.94
2022-09-03T08:56:21.395Z,97827.88
2022-09-03T08:58:48.886Z,97831.19
2022-09-03T09:01:31.241Z,97831.19
2022-09-03T09:04:09.758Z,97841.78
2022-09-03T09:06:43.602Z,97833.94
2022-09-03T09:09:20.963Z,97838.25
2022-09-03T09:11:58.195Z,97837.75
2022-09-03T09:14:32.548Z,97830.19
2022-09-03T09:17:14.571Z,97829.75
2022-09-03T09:19:53.867Z,97845.53
2022-09-03T09:22:28.263Z,97844.59
2022-09-03T09:24:58.768Z,97856.19
2022-09-03T09:27:26.276Z,97840.22
2022-09-03T09:29:55.017Z,97844.50
2022-09-03T09:32:23.928Z,97853.44
2022-09-03T09:34:52.582Z,97857.69
2022-09-03T09:37:20.891Z,97842.53
2022-09-03T09:39:56.537Z,97839.53
2022-09-03T09:42:24.608Z,97843.28
2022-09-03T09:44:52.414Z,97848.53
2022-09-03T09:47:27.037Z,97858.44
2022-09-03T09:49:56.172Z,97863.13
2022-09-03T09:52:24.720Z,97856.19
2022-09-03T09:54:53.515Z,97853.59
2022-09-03T09:57:23.954Z,97852.84
2022-09-03T10:00:03.044Z,97868.38
2022-09-03T10:02:45.446Z,97868.63
2022-09-03T10:05:15.422Z,97873.97
2022-09-03T10:07:42.892Z,97876.53
2022-09-03T10:10:18.349Z,97870.38
2022-09-03T10:12:48.996Z,97879.31
2022-09-03T10:15:25.810Z,97881.75
2022-09-03T10:18:00.445Z,97872.06
2022-09-03T10:20:36.683Z,97878.28
2022-09-03T10:23:11.800Z,97881.56
2022-09-03T10:25:46.253Z,97888.16
2022-09-03T10:28:13.760Z,97899.78
2022-09-03T10:31:04.150Z,97895.72
2022-09-03T10:33:39.205Z,97900.91
2022-09-03T10:36:16.925Z,97899.47
2022-09-03T10:38:46.797Z,97900.66
2022-09-03T10:41:26.779Z,97907.47
2022-09-03T10:44:14.075Z,97907.88
2022-09-03T10:46:50.973Z,97906.19
2022-09-03T10:49:38.557Z,97919.47
2022-09-03T10:52:13.326Z,97912.28
2022-09-03T10:54:58.063Z,97930.56
2022-09-03T10:57:38.127Z,97909.00
2022-09-03T11:00:09.285Z,97914.34
2022-09-03T11:03:08.093Z,97918.75
2022-09-03T11:05:40.329Z,97924.63
2022-09-03T11:08:12.590Z,97920.44
2022-09-03T11:10:45.186Z,97922.09
2022-09-03T11:13:17.735Z,97922.31
2022-09-03T11:15:51.267Z,97922.03
2022-09-03T11:18:25.963Z,97922.69
2022-09-03T11:20:59.905Z,97929.31
2022-09-03T11:23:29.573Z,97921.84
2022-09-03T11:26:01.867Z,97919.13
2022-09-03T11:28:40.347Z,97920.97
2022-09-03T11:31:21.683Z,97936.78
2022-09-03T11:33:55.009Z,97927.03
2022-09-03T11:36:32.372Z,97934.63
2022-09-03T11:38:59.820Z,97937.56
2022-09-03T11:41:28.440Z,97939.16
2022-09-03T11:43:55.887Z,97948.50
2022-09-03T11:46:30.800Z,97942.38
2022-09-03T11:49:10.516Z,97945.22
2022-09-03T11:51:40.010Z,97949.16
2022-09-03T11:54:24.055Z,97960.03
2022-09-03T11:56:51.958Z,97964.63
2022-09-03T11:59:24.028Z,97964.41
2022-09-03T12:01:58.722Z,97968.13
2022-09-03T12:04:35.208Z,97961.50
2022-09-03T12:07:25.958Z,97965.56
2022-09-03T12:10:17.848Z,97966.63
2022-09-03T12:12:59.172Z,97965.66
2022-09-03T12:15:42.612Z,97976.84
2022-09-03T12:18:14.597Z,97976.66
2022-09-03T12:20:42.785Z,97971.03
2022-09-03T12:23:12.940Z,97975.44
2022-09-03T12:25:44.132Z,97986.44
2022-09-03T12:28:16.977Z,97976.66
2022-09-03T12:30:44.403Z,97984.09
2022-09-03T12:33:17.171Z,97985.34
2022-09-03T12:36:00.342Z,97973.78
2022-09-03T12:38:30.400Z,97978.34
2022-09-03T12:43:51.922Z,97977.44
2022-09-03T12:46:22.560Z,97975.59
2022-09-03T12:51:49.971Z,97973.75
2022-09-03T12:54:22.277Z,97974.50
2022-09-03T12:56:57.173Z,97970.66
2022-09-03T12:59:29.020Z,97969.63
2022-09-03T13:02:00.548Z,97965.50
2022-09-03T13:04:31.420Z,97972.25
2022-09-03T13:07:05.385Z,97977.72
2022-09-03T13:09:38.131Z,97961.13
2022-09-03T13:12:06.120Z,97965.03
2022-09-03T13:14:43.376Z,97966.34
2022-09-03T13:17:30.544Z,97968.59
2022-09-03T13:20:25.931Z,97972.69
2022-09-03T13:23:21.244Z,97969.13
2022-09-03T13:25:59.232Z,97986.44
2022-09-03T13:28:41.349Z,97986.78
2022-09-03T13:31:20.122Z,97988.66
2022-09-03T13:33:53.624Z,97987.38
2022-09-03T13:36:26.692Z,97996.03
2022-09-03T13:38:58.747Z,97988.50
2022-09-03T13:41:37.728Z,97983.63
2022-09-03T13:44:11.808Z,97990.69
2022-09-03T13:46:47.037Z,97996.47
2022-09-03T13:49:34.943Z,97994.44
2022-09-03T13:52:07.011Z,97998.56
2022-09-03T13:54:49.167Z,98013.50
2022-09-03T13:57:30.528Z,98012.69
2022-09-03T14:00:02.773Z,98016.78
2022-09-03T14:02:46.677Z,98011.75
2022-09-03T14:05:19.851Z,98010.94
2022-09-03T14:08:01.840Z,98010.53
2022-09-03T14:10:39.519Z,98013.03
2022-09-03T14:13:19.254Z,98020.31
2022-09-03T14:15:52.457Z,98019.25
2022-09-03T14:18:40.007Z,98021.69
2022-09-03T14:21:11.873Z,98025.91
2022-09-03T14:23:46.192Z,98031.31
2022-09-03T14:26:27.109Z,98019.56
2022-09-03T14:29:15.555Z,98017.53
2022-09-03T14:32:10.181Z,98023.13
2022-09-03T14:34:53.158Z,98021.63
2022-09-03T14:37:39.421Z,98025.13
2022-09-03T14:40:15.755Z,98031.00
2022-09-03T14:43:02.044Z,98030.63
2022-09-03T14:45:52.473Z,98034.91
2022-09-03T14:48:37.590Z,98025.91
2022-09-03T14:51:19.893Z,98040.47
2022-09-03T14:54:10.774Z,98043.16
2022-09-03T14:56:49.422Z,98039.69
2022-09-03T14:59:48.974Z,98041.47
2022-09-03T15:02:43.436Z,98041.94
2022-09-03T15:05:21.732Z,98041.47
2022-09-03T15:07:53.353Z,98050.69
2022-09-03T15:10:32.559Z,98058.19
2022-09-03T15:13:08.392Z,98059.44
2022-09-03T15:15:54.602Z,98058.41
2022-09-03T15:18:30.908Z,98060.28
2022-09-03T15:21:13.726Z,98066.72
2022-09-03T15:23:59.165Z,98067.13
2022-09-03T15:26:46.791Z,98073.78
2022-09-03T15:29:36.525Z,98074.00
2022-09-03T15:32:14.312Z,98072.53
2022-09-03T15:35:02.734Z,98069.81
2022-09-03T15:37:37.425Z,98071.09
2022-09-03T15:40:15.604Z,98071.09
2022-09-03T15:42:46.528Z,98076.25
2022-09-03T15:45:26.131Z,98074.63
2022-09-03T15:47:55.154Z,98080.84
2022-09-03T15:50:34.046Z,98073.97
2022-09-03T15:53:09.186Z,98077.09
2022-09-03T15:55:39.320Z,98077.09
2022-09-03T15:58:24.359Z,98077.31
2022-09-03T16:00:58.044Z,98080.84
2022-09-03T16:03:36.097Z,98085.00
2022-09-03T16:06:11.869Z,98077.72
2022-09-03T16:08:47.217Z,98083.34
2022-09-03T16:11:21.979Z,98077.94
2022-09-03T16:14:03.621Z,98079.19
2022-09-03T16:16:48.036Z,98074.81
2022-09-03T16:19:21.929Z,98073.16
2022-09-03T16:21:58.747Z,98074.19
2022-09-03T16:24:33.832Z,98075.00
2022-09-03T16:27:07.810Z,98077.09
2022-09-03T16:29:35.526Z,98076.66
2022-09-03T16:32:24.323Z,98074.75
2022-09-03T16:35:03.395Z,98079.94
2022-09-03T16:37:40.037Z,98089.06
2022-09-03T16:40:16.704Z,98090.72
2022-09-03T16:42:53.919Z,98087.84
2022-09-03T16:45:30.566Z,98086.78
2022-09-03T16:48:19.919Z,98082.63
2022-09-03T16:51:02.499Z,98095.69
2022-09-03T16:53:47.183Z,98101.53
2022-09-03T16:56:32.164Z,98099.81
2022-09-03T16:59:05.613Z,98096.13
2022-09-03T17:01:51.834Z,98097.78
2022-09-03T17:05:03.971Z,98110.22
2022-09-03T17:07:50.530Z,98102.13
2022-09-03T17:10:28.030Z,98101.50
2022-09-03T17:13:11.293Z,98101.25
2022-09-03T17:15:44.756Z,98099.25
2022-09-03T17:18:27.232Z,98100.53
2022-09-03T17:21:12.226Z,98097.22
2022-09-03T17:24:00.057Z,98110.28
2022-09-03T17:26:39.913Z,98106.09
2022-09-03T17:29:25.585Z,98111.09
2022-09-03T17:32:01.505Z,98109.44
2022-09-03T17:34:41.815Z,98099.88
2022-09-03T17:37:22.178Z,98100.28
2022-09-03T17:40:01.499Z,98102.38
2022-09-03T17:42:40.935Z,98103.84
2022-09-03T17:45:15.324Z,98102.38
2022-09-03T17:48:13.552Z,98099.88
2022-09-03T17:50:50.904Z,98105.66
2022-09-03T17:53:21.840Z,98096.75
2022-09-03T17:55:56.739Z,98104.03
2022-09-03T17:58:31.904Z,98094.47
2022-09-03T18:01:07.781Z,98099.22
2022-09-03T18:03:44.458Z,98100.66
2022-09-03T18:06:23.236Z,98097.78
2022-09-03T18:08:57.822Z,98103.16
2022-09-03T18:11:34.076Z,98100.69
2022-09-03T18:14:14.040Z,98105.25
2022-09-03T18:16:50.405Z,98099.00
2022-09-03T18:19:28.970Z,98107.31
2022-09-03T18:21:59.058Z,98102.31
2022-09-03T18:24:30.655Z,98100.47
2022-09-03T18:27:00.219Z,98098.41
2022-09-03T18:29:37.359Z,98111.91
2022-09-03T18:32:05.882Z,98105.25
2022-09-03T18:34:35.412Z,98110.63
2022-09-03T18:37:02.941Z,98115.84
2022-09-03T18:39:30.408Z,98116.03
2022-09-03T18:42:06.680Z,98117.31
2022-09-03T18:44:57.849Z,98122.69
2022-09-03T18:48:03.409Z,98123.94
2022-09-03T18:50:41.908Z,98121.84
2022-09-03T18:53:14.365Z,98130.09
2022-09-03T18:55:55.962Z,98131.19
2022-09-03T18:58:30.155Z,98129.78
2022-09-03T19:01:05.413Z,98128.44
2022-09-03T19:03:43.631Z,98135.94
2022-09-03T19:06:23.437Z,98131.16
2022-09-03T19:09:00.487Z,98130.97
2022-09-03T19:11:31.094Z,98129.94
2022-09-03T19:14:04.568Z,98125.16
2022-09-03T19:16:48.845Z,98125.97
2022-09-03T19:19:47.850Z,98115.41
2022-09-03T19:22:26.966Z,98122.63
2022-09-03T19:25:02.397Z,98133.16
2022-09-03T19:27:58.907Z,98136.53
2022-09-03T19:30:33.004Z,98137.94
2022-09-03T19:33:11.937Z,98137.31
2022-09-03T19:35:54.702Z,98130.53
2022-09-03T19:38:35.533Z,98128.66
2022-09-03T19:41:14.492Z,98127.66
2022-09-03T19:43:56.108Z,98131.16
2022-09-03T19:46:33.802Z,98136.13
2022-09-03T19:49:16.064Z,98137.34
2022-09-03T19:51:53.350Z,98141.28
2022-09-03T19:54:24.589Z,98147.13
2022-09-03T19:56:55.266Z,98144.19
2022-09-03T19:59:29.161Z,98141.25
2022-09-03T20:01:56.659Z,98154.31
2022-09-03T20:04:33.105Z,98152.69
2022-09-03T20:07:03.326Z,98153.47
2022-09-03T20:09:36.295Z,98156.72
2022-09-03T20:12:10.100Z,98162.41
2022-09-03T20:14:37.851Z,98156.94
2022-09-03T20:17:15.427Z,98157.97
2022-09-03T20:20:00.822Z,98160.28
2022-09-03T20:22:33.622Z,98159.50
2022-09-03T20:25:23.678Z,98159.09
2022-09-03T20:28:03.200Z,98162.00
2022-09-03T20:30:37.845Z,98162.19
2022-09-03T20:33:26.732Z,98163.06
2022-09-03T20:36:07.271Z,98163.06
2022-09-03T20:39:03.913Z,98163.25
2022-09-03T20:41:43.451Z,98165.34
2022-09-03T20:44:27.716Z,98160.47
2022-09-03T20:47:12.069Z,98162.19
2022-09-03T20:49:51.481Z,98156.16
2022-09-03T20:52:23.864Z,98161.09
2022-09-03T20:55:03.797Z,98163.59
2022-09-03T20:57:40.870Z,98156.31
2022-09-03T21:00:11.300Z,98157.63
2022-09-03T21:03:07.548Z,98157.19
2022-09-03T21:05:42.160Z,98154.47
2022-09-03T21:08:24.460Z,98156.94
2022-09-03T21:10:56.447Z,98164.41
2022-09-03T21:13:38.949Z,98154.91
2022-09-03T21:16:18.938Z,98160.22
2022-09-03T21:18:59.704Z,98165.66
2022-09-03T21:21:36.516Z,98166.06
2022-09-03T21:24:11.851Z,98170.22
2022-09-03T21:26:41.595Z,98169.28
2022-09-03T21:29:11.910Z,98181.94
2022-09-03T21:31:47.376Z,98173.44
2022-09-03T21:34:19.358Z,98178.19
2022-09-03T21:36:48.765Z,98180.50
2022-09-03T21:39:25.659Z,98189.84
2022-09-03T21:41:58.593Z,98180.72
2022-09-03T21:44:42.748Z,98190.03
2022-09-03T21:47:11.743Z,98176.53
2022-09-03T21:49:53.312Z,98175.91
2022-09-03T21:52:27.331Z,98183.72
2022-09-03T21:54:56.556Z,98186.59
2022-09-03T21:57:32.339Z,98185.81
2022-09-03T22:00:16.507Z,98179.78
2022-09-03T22:02:44.286Z,98185.66
2022-09-03T22:05:12.011Z,98188.72
2022-09-03T22:07:59.125Z,98197.03
2022-09-03T22:10:32.930Z,98204.44
2022-09-03T22:13:09.117Z,98205.66
2022-09-03T22:15:37.501Z,98202.91
2022-09-03T22:18:11.199Z,98198.41
2022-09-03T22:20:38.764Z,98201.16
2022-09-03T22:23:12.286Z,98211.69
2022-09-03T22:25:47.564Z,98212.00
2022-09-03T22:28:23.745Z,98210.13
2022-09-03T22:30:55.906Z,98206.38
2022-09-03T22:33:28.922Z,98213.47
2022-09-03T22:36:13.669Z,98211.03
2022-09-03T22:39:03.794Z,98208.91
2022-09-03T22:41:47.795Z,98216.59
2022-09-03T22:44:28.600Z,98205.56
2022-09-03T22:47:04.282Z,98208.00
2022-09-03T22:49:38.085Z,98211.53
2022-09-03T22:52:27.803Z,98210.50
2022-09-03T22:55:05.165Z,98212.53
2022-09-03T22:57:39.984Z,98215.00
2022-09-03T23:00:10.128Z,98211.19
2022-09-03T23:02:40.294Z,98218.97
2022-09-03T23:05:10.101Z,98218.84
2022-09-03T23:07:49.694Z,98211.00
2022-09-03T23:10:24.454Z,98214.09
2022-09-03T23:13:06.619Z,98216.28
2022-09-03T23:15:36.854Z,98214.44
2022-09-03T23:18:08.280Z,98216.28
2022-09-03T23:20:40.532Z,98223.34
2022-09-03T23:23:16.709Z,98220.97
2022-09-03T23:25:47.944Z,98222.22
2022-09-03T23:28:22.561Z,98229.09
2022-09-03T23:30:50.548Z,98233.34
2022-09-03T23:33:17.992Z,98233.16
2022-09-03T23:35:54.493Z,98229.75
2022-09-03T23:38:29.997Z,98234.59
2022-09-03T23:40:59.977Z,98235.97
2022-09-03T23:43:57.912Z,98231.41
2022-09-03T23:46:28.420Z,98229.25
2022-09-03T23:49:16.111Z,98236.25
2022-09-03T23:52:03.690Z,98247.78
2022-09-03T23:54:39.296Z,98245.34
2022-09-03T23:57:18.633Z,98233.06
